createdAt,value
2023-04-28T04:13:49.709Z,12.80
2023-04-28T04:16:19.361Z,12.92
2023-04-28T04:18:47.266Z,12.45
2023-04-28T04:21:23.475Z,12.18
2023-04-28T04:23:52.969Z,12.09
2023-04-28T04:26:21.389Z,12.18
2023-04-28T04:28:51.105Z,11.98
2023-04-28T04:31:19.713Z,12.03
2023-04-28T04:33:47.633Z,12.19
2023-04-28T04:36:15.414Z,12.27
2023-04-28T04:38:42.784Z,12.16
2023-04-28T04:41:16.084Z,12.02
2023-04-28T04:43:45.103Z,12.09
2023-04-28T04:46:12.461Z,12.34
2023-04-28T04:48:40.379Z,12.25
2023-04-28T04:51:07.768Z,12.39
2023-04-28T04:53:36.222Z,12.71
2023-04-28T04:56:03.926Z,13.14
2023-04-28T04:58:32.841Z,12.93
2023-04-28T05:01:12.188Z,12.96
2023-04-28T05:03:39.598Z,13.25
2023-04-28T05:06:07.085Z,13.16
2023-04-28T05:08:47.054Z,13.05
2023-04-28T05:11:14.401Z,13.48
2023-04-28T05:13:42.079Z,13.13
2023-04-28T05:16:09.524Z,13.34
2023-04-28T05:19:03.268Z,13.50
2023-04-28T05:21:31.080Z,13.75
2023-04-28T05:23:59.546Z,13.56
2023-04-28T05:26:27.166Z,13.92
2023-04-28T05:28:59.050Z,13.67
2023-04-28T05:31:27.035Z,13.85
2023-04-28T05:33:56.025Z,13.78
2023-04-28T05:36:23.729Z,13.63
2023-04-28T05:38:53.347Z,13.73
2023-04-28T05:41:20.965Z,13.55
2023-04-28T05:43:51.098Z,13.87
2023-04-28T05:46:30.054Z,13.82
2023-04-28T05:48:59.624Z,13.91
2023-04-28T05:51:30.310Z,14.15
2023-04-28T05:53:58.456Z,14.04
2023-04-28T05:56:28.798Z,13.66
2023-04-28T05:58:58.600Z,13.80
2023-04-28T06:01:26.937Z,13.86
2023-04-28T06:03:56.653Z,14.27
2023-04-28T06:06:26.093Z,14.27
2023-04-28T06:08:54.871Z,14.35
2023-04-28T06:11:22.708Z,14.37
2023-04-28T06:13:51.204Z,14.56
2023-04-28T06:16:20.011Z,14.49
2023-04-28T06:18:49.717Z,14.61
2023-04-28T06:21:19.372Z,14.68
2023-04-28T06:23:47.077Z,14.56
2023-04-28T06:26:16.247Z,14.59
2023-04-28T06:28:46.322Z,14.81
2023-04-28T06:31:13.764Z,14.68
2023-04-28T06:33:41.086Z,14.39
2023-04-28T06:36:08.740Z,14.41
2023-04-28T06:38:37.175Z,14.38
2023-04-28T06:41:04.609Z,14.36
2023-04-28T06:43:33.396Z,14.64
2023-04-28T06:46:14.863Z,15.14
2023-04-28T06:48:43.315Z,15.42
2023-04-28T06:51:11.283Z,15.21
2023-04-28T06:53:39.157Z,15.43
2023-04-28T06:56:11.219Z,15.72
2023-04-28T06:58:40.178Z,15.64
2023-04-28T07:01:08.128Z,15.88
2023-04-28T07:03:36.117Z,15.90
2023-04-28T07:06:03.943Z,15.70
2023-04-28T07:08:31.604Z,15.89
2023-04-28T07:10:59.703Z,15.98
2023-04-28T07:13:27.276Z,16.30
2023-04-28T07:16:22.018Z,16.11
2023-04-28T07:18:50.074Z,15.77
2023-04-28T07:21:18.269Z,16.30
2023-04-28T07:23:46.007Z,16.63
2023-04-28T07:26:16.306Z,16.68
2023-04-28T07:28:45.010Z,16.72
2023-04-28T07:31:12.411Z,16.70
2023-04-28T07:33:39.711Z,16.84
2023-04-28T07:36:08.045Z,16.65
2023-04-28T07:38:36.472Z,16.61
2023-04-28T07:41:05.780Z,16.75
2023-04-28T07:43:35.065Z,16.53
2023-04-28T07:46:02.489Z,16.78
2023-04-28T07:48:32.368Z,16.41
2023-04-28T07:51:00.143Z,16.93
2023-04-28T07:53:28.241Z,17.07
2023-04-28T07:55:55.748Z,16.86
2023-04-28T07:58:23.575Z,17.09
2023-04-28T08:00:51.266Z,17.40
2023-04-28T08:03:18.759Z,17.65
2023-04-28T08:05:47.245Z,17.52
2023-04-28T08:08:15.258Z,17.41
2023-04-28T08:10:43.826Z,17.48
2023-04-28T08:13:11.439Z,17.67
2023-04-28T08:15:39.128Z,17.68
2023-04-28T08:18:07.391Z,18.04
2023-04-28T08:20:34.939Z,18.17
2023-04-28T08:23:02.486Z,18.10
2023-04-28T08:25:29.869Z,18.20
2023-04-28T08:27:57.530Z,18.29
2023-04-28T08:30:25.386Z,18.64
2023-04-28T08:32:53.130Z,18.58
2023-04-28T08:35:20.921Z,18.72
2023-04-28T08:37:49.708Z,19.29
2023-04-28T08:40:17.896Z,19.33
2023-04-28T08:42:46.288Z,19.51
2023-04-28T08:45:15.122Z,19.58
2023-04-28T08:47:46.120Z,19.93
2023-04-28T08:50:14.333Z,19.96
2023-04-28T08:52:43.397Z,20.15
2023-04-28T08:55:13.103Z,20.11
2023-04-28T08:57:54.814Z,20.04
2023-04-28T09:00:23.298Z,19.83
2023-04-28T09:02:51.024Z,19.93
2023-04-28T09:05:18.672Z,20.17
2023-04-28T09:07:47.740Z,19.72
2023-04-28T09:10:19.442Z,19.83
2023-04-28T09:12:48.989Z,19.78
2023-04-28T09:15:27.751Z,20.11
2023-04-28T09:17:55.672Z,20.06
2023-04-28T09:20:24.504Z,20.11
2023-04-28T09:22:55.491Z,19.43
2023-04-28T09:25:23.863Z,19.17
2023-04-28T09:27:51.297Z,19.51
2023-04-28T09:30:18.711Z,19.21
2023-04-28T09:32:54.590Z,19.97
2023-04-28T09:35:43.603Z,19.56
2023-04-28T09:38:11.918Z,19.52
2023-04-28T09:40:54.077Z,19.61
2023-04-28T09:43:26.579Z,19.14
2023-04-28T09:45:55.475Z,19.64
2023-04-28T09:48:38.001Z,19.74
2023-04-28T09:51:07.938Z,20.11
2023-04-28T09:53:36.110Z,20.21
2023-04-28T09:56:08.162Z,20.06
2023-04-28T09:58:40.704Z,20.24
2023-04-28T10:01:11.461Z,20.21
2023-04-28T10:03:40.441Z,20.30
2023-04-28T10:06:08.601Z,20.43
2023-04-28T10:08:35.964Z,20.63
2023-04-28T10:11:03.577Z,20.35
2023-04-28T10:13:31.146Z,20.64
2023-04-28T10:15:58.953Z,20.96
2023-04-28T10:18:26.909Z,20.58
2023-04-28T10:20:58.900Z,21.08
2023-04-28T10:23:53.389Z,20.88
2023-04-28T10:26:23.840Z,20.53
2023-04-28T10:28:52.765Z,20.44
2023-04-28T10:31:21.997Z,20.80
2023-04-28T10:33:50.091Z,20.91
2023-04-28T10:36:50.900Z,21.07
2023-04-28T10:39:18.669Z,20.89
2023-04-28T10:41:49.944Z,20.74
2023-04-28T10:44:33.025Z,21.07
2023-04-28T10:47:04.172Z,21.77
2023-04-28T10:50:01.339Z,22.27
2023-04-28T10:52:38.326Z,22.24
2023-04-28T10:55:27.141Z,22.05
2023-04-28T10:58:16.283Z,22.39
2023-04-28T11:00:53.819Z,22.02
2023-04-28T11:03:47.194Z,22.22
2023-04-28T11:06:35.546Z,22.57
2023-04-28T11:09:32.318Z,23.19
2023-04-28T11:12:00.002Z,22.88
2023-04-28T11:14:31.504Z,22.51
2023-04-28T11:17:03.089Z,22.63
2023-04-28T11:19:41.654Z,22.78
2023-04-28T11:22:20.862Z,23.25
2023-04-28T11:24:59.104Z,23.10
2023-04-28T11:27:27.979Z,22.78
2023-04-28T11:29:55.793Z,23.19
2023-04-28T11:32:28.587Z,23.46
2023-04-28T11:34:56.020Z,23.57
2023-04-28T11:37:23.932Z,22.61
2023-04-28T11:39:51.901Z,22.60
2023-04-28T11:42:19.592Z,22.89
2023-04-28T11:44:54.548Z,23.58
2023-04-28T11:47:33.838Z,24.14
2023-04-28T11:50:02.068Z,24.61
2023-04-28T11:52:29.592Z,24.92
2023-04-28T11:54:59.936Z,25.37
2023-04-28T11:57:28.715Z,25.69
2023-04-28T12:00:19.291Z,25.57
2023-04-28T12:05:14.927Z,24.28
2023-04-28T12:07:44.338Z,24.88
2023-04-28T12:10:19.813Z,25.01
2023-04-28T12:12:52.471Z,24.45
2023-04-28T12:15:22.985Z,24.82
2023-04-28T12:17:51.335Z,24.64
2023-04-28T12:20:49.098Z,24.61
2023-04-28T12:23:28.449Z,24.05
2023-04-28T12:25:55.870Z,24.51
2023-04-28T12:28:23.284Z,24.30
2023-04-28T12:30:51.036Z,24.86
2023-04-28T12:33:26.958Z,25.81
2023-04-28T12:35:56.550Z,25.46
2023-04-28T12:38:24.637Z,25.31
2023-04-28T12:40:52.856Z,25.76
2023-04-28T12:43:23.097Z,25.52
2023-04-28T12:45:52.976Z,24.86
2023-04-28T12:48:21.118Z,24.18
2023-04-28T12:50:48.374Z,24.57
2023-04-28T12:56:40.941Z,25.80
2023-04-28T12:59:08.564Z,25.61
2023-04-28T13:01:36.307Z,25.97
2023-04-28T13:04:03.924Z,25.96
2023-04-28T13:06:32.708Z,26.14
2023-04-28T13:09:00.091Z,26.02
2023-04-28T13:11:28.049Z,26.79
2023-04-28T13:13:57.050Z,26.98
2023-04-28T13:16:29.271Z,27.12
2023-04-28T13:18:58.175Z,27.41
2023-04-28T13:21:26.896Z,27.19
2023-04-28T13:23:55.966Z,27.65
2023-04-28T13:26:26.727Z,27.86
2023-04-28T13:28:54.113Z,28.26
2023-04-28T13:31:21.991Z,26.52
2023-04-28T13:33:49.789Z,25.44
2023-04-28T13:36:17.436Z,27.14
2023-04-28T13:38:48.785Z,27.05
2023-04-28T13:41:17.204Z,27.77
2023-04-28T13:43:44.615Z,28.14
2023-04-28T13:46:12.361Z,28.67
2023-04-28T13:48:40.769Z,28.45
2023-04-28T13:51:09.534Z,28.25
2023-04-28T13:53:38.252Z,28.31
2023-04-28T13:56:06.770Z,28.40
2023-04-28T13:58:34.683Z,28.20
2023-04-28T14:01:03.826Z,28.00
2023-04-28T14:03:31.463Z,27.94
2023-04-28T14:05:59.841Z,27.64
2023-04-28T14:08:27.991Z,28.20
2023-04-28T14:10:55.396Z,28.20
2023-04-28T14:13:24.707Z,28.63
2023-04-28T14:15:59.628Z,29.18
2023-04-28T14:18:28.556Z,29.52
2023-04-28T14:20:56.649Z,28.91
2023-04-28T14:23:24.443Z,28.15
2023-04-28T14:25:56.040Z,28.81
2023-04-28T14:28:23.944Z,28.43
2023-04-28T14:30:54.264Z,29.73
2023-04-28T14:33:21.681Z,29.75
2023-04-28T14:35:49.462Z,29.92
2023-04-28T14:38:16.893Z,31.92
2023-04-28T14:40:44.353Z,32.84
2023-04-28T14:43:13.991Z,32.02
2023-04-28T14:45:41.974Z,33.23
2023-04-28T14:48:10.569Z,35.45
2023-04-28T14:50:38.905Z,36.82
2023-04-28T14:53:07.524Z,36.19
2023-04-28T14:55:35.192Z,36.11
2023-04-28T14:58:02.970Z,32.57
2023-04-28T15:00:31.418Z,31.46
2023-04-28T15:02:59.205Z,32.19
2023-04-28T15:05:27.188Z,32.10
2023-04-28T15:07:55.146Z,31.83
2023-04-28T15:10:22.538Z,32.08
2023-04-28T15:12:50.075Z,31.02
2023-04-28T15:15:17.693Z,33.40
2023-04-28T15:17:45.454Z,32.51
2023-04-28T15:20:12.947Z,30.46
2023-04-28T15:22:40.942Z,30.03
2023-04-28T15:25:08.462Z,30.94
2023-04-28T15:27:36.511Z,33.31
2023-04-28T15:30:04.666Z,35.13
2023-04-28T15:32:32.465Z,34.72
2023-04-28T15:35:00.378Z,36.06
2023-04-28T15:37:37.285Z,35.53
2023-04-28T15:40:05.901Z,33.65
2023-04-28T15:42:34.121Z,32.88
2023-04-28T15:45:02.456Z,32.73
2023-04-28T15:47:31.030Z,30.87
2023-04-28T15:49:59.709Z,30.48
2023-04-28T15:52:27.509Z,31.00
2023-04-28T15:54:56.144Z,31.07
2023-04-28T15:57:24.111Z,30.91
2023-04-28T15:59:51.835Z,32.16
2023-04-28T16:02:22.343Z,33.05
2023-04-28T16:04:50.345Z,31.47
2023-04-28T16:07:17.901Z,31.31
2023-04-28T16:09:45.570Z,29.88
2023-04-28T16:12:13.137Z,29.92
2023-04-28T16:14:41.038Z,29.72
2023-04-28T16:17:08.905Z,28.49
2023-04-28T16:19:37.145Z,29.19
2023-04-28T16:22:04.472Z,28.82
2023-04-28T16:24:32.420Z,28.93
2023-04-28T16:26:59.732Z,28.87
2023-04-28T16:29:27.949Z,29.07
2023-04-28T16:31:55.319Z,28.78
2023-04-28T16:34:23.596Z,29.71
2023-04-28T16:36:51.447Z,28.88
2023-04-28T16:39:19.213Z,29.74
2023-04-28T16:41:46.910Z,29.13
2023-04-28T16:44:15.788Z,28.84
2023-04-28T16:46:43.081Z,29.13
2023-04-28T16:49:12.409Z,28.66
2023-04-28T16:51:39.710Z,28.29
2023-04-28T16:54:07.111Z,27.25
2023-04-28T16:56:38.874Z,26.96
2023-04-28T16:59:07.131Z,26.76
2023-04-28T17:01:35.005Z,26.94
2023-04-28T17:04:06.807Z,26.54
2023-04-28T17:06:34.281Z,25.75
2023-04-28T17:09:02.100Z,26.10
2023-04-28T17:11:29.357Z,25.88
2023-04-28T17:13:57.886Z,25.27
2023-04-28T17:16:25.401Z,25.28
2023-04-28T17:18:53.325Z,24.99
2023-04-28T17:21:20.557Z,24.77
2023-04-28T17:23:47.989Z,24.14
2023-04-28T17:26:16.387Z,24.22
2023-04-28T17:28:44.095Z,24.10
2023-04-28T17:31:11.548Z,23.90
2023-04-28T17:33:38.912Z,23.87
2023-04-28T17:36:06.760Z,23.49
2023-04-28T17:38:35.503Z,23.58
2023-04-28T17:41:03.840Z,23.76
2023-04-28T17:43:31.742Z,23.57
2023-04-28T17:45:59.307Z,23.47
2023-04-28T17:48:26.597Z,23.50
2023-04-28T17:50:54.332Z,23.36
2023-04-28T17:53:21.688Z,23.31
2023-04-28T17:55:49.329Z,23.43
2023-04-28T17:58:17.146Z,23.16
2023-04-28T18:00:45.338Z,22.99
2023-04-28T18:03:13.173Z,22.97
2023-04-28T18:05:40.975Z,21.94
2023-04-28T18:08:09.390Z,21.38
2023-04-28T18:10:36.785Z,21.15
2023-04-28T18:13:06.156Z,21.05
2023-04-28T18:15:33.867Z,20.92
2023-04-28T18:18:01.165Z,21.00
2023-04-28T18:20:28.496Z,20.87
2023-04-28T18:22:56.586Z,20.86
2023-04-28T18:25:24.231Z,20.62
2023-04-28T18:27:53.842Z,20.56
2023-04-28T18:30:21.775Z,20.54
2023-04-28T18:32:50.768Z,20.46
2023-04-28T18:35:19.140Z,20.44
2023-04-28T18:37:46.581Z,20.21
2023-04-28T18:40:14.284Z,20.10
2023-04-28T18:42:42.577Z,20.08
2023-04-28T18:47:43.343Z,19.98
2023-04-28T18:50:11.564Z,19.97
2023-04-28T18:52:39.025Z,19.86
2023-04-28T18:55:07.425Z,19.83
2023-04-28T18:57:34.817Z,19.69
2023-04-28T19:00:02.201Z,19.72
2023-04-28T19:02:29.699Z,19.72
2023-04-28T19:04:57.512Z,19.61
2023-04-28T19:07:24.937Z,19.69
2023-04-28T19:09:52.486Z,19.68
2023-04-28T19:12:20.527Z,19.84
2023-04-28T19:14:48.278Z,19.48
2023-04-28T19:17:15.618Z,19.42
2023-04-28T19:19:43.413Z,19.51
2023-04-28T19:22:35.035Z,19.30
2023-04-28T19:25:04.517Z,19.53
2023-04-28T19:27:34.673Z,19.54
2023-04-28T19:30:03.729Z,19.50
2023-04-28T19:32:32.044Z,19.58
2023-04-28T19:35:00.409Z,19.63
2023-04-28T19:37:28.268Z,19.54
2023-04-28T19:39:55.653Z,19.01
2023-04-28T19:42:23.064Z,18.83
2023-04-28T19:44:57.981Z,18.74
2023-04-28T19:47:27.481Z,18.98
2023-04-28T19:49:55.454Z,18.76
2023-04-28T19:52:23.058Z,18.76
2023-04-28T19:54:52.032Z,18.91
2023-04-28T19:57:20.032Z,18.82
2023-04-28T19:59:49.100Z,18.86
2023-04-28T20:02:17.760Z,18.70
2023-04-28T20:04:45.118Z,18.66
2023-04-28T20:07:13.208Z,18.71
2023-04-28T20:09:41.125Z,18.64
2023-04-28T20:12:09.732Z,18.80
2023-04-28T20:14:39.930Z,18.63
2023-04-28T20:17:09.083Z,18.57
2023-04-28T20:19:37.417Z,18.65
2023-04-28T20:22:08.349Z,18.37
2023-04-28T20:24:37.275Z,18.25
2023-04-28T20:27:05.191Z,18.34
2023-04-28T20:29:35.067Z,18.40
2023-04-28T20:32:04.603Z,18.51
2023-04-28T20:34:32.258Z,18.43
2023-04-28T20:37:03.140Z,18.56
2023-04-28T20:39:31.017Z,18.59
2023-04-28T20:42:00.663Z,18.46
2023-04-28T20:44:29.012Z,18.47
2023-04-28T20:46:56.378Z,18.54
2023-04-28T20:49:24.498Z,18.45
2023-04-28T20:51:52.064Z,18.28
2023-04-28T20:54:19.893Z,18.12
2023-04-28T20:56:47.702Z,18.04
2023-04-28T20:59:15.077Z,18.08
2023-04-28T21:01:42.449Z,18.28
2023-04-28T21:04:10.035Z,18.15
2023-04-28T21:06:38.358Z,18.40
2023-04-28T21:09:06.025Z,18.23
2023-04-28T21:11:33.790Z,17.86
2023-04-28T21:14:01.880Z,17.62
2023-04-28T21:16:29.556Z,17.53
2023-04-28T21:18:58.228Z,17.55
2023-04-28T21:21:26.905Z,17.59
2023-04-28T21:23:54.944Z,17.44
2023-04-28T21:26:23.896Z,17.63
2023-04-28T21:28:51.275Z,17.76
2023-04-28T21:31:19.632Z,17.79
2023-04-28T21:33:46.962Z,17.61
2023-04-28T21:36:14.243Z,17.59
2023-04-28T21:38:41.524Z,17.66
2023-04-28T21:41:08.777Z,17.74
2023-04-28T21:43:37.019Z,17.65
2023-04-28T21:46:04.424Z,17.61
2023-04-28T21:48:32.262Z,17.52
2023-04-28T21:50:59.910Z,17.51
2023-04-28T21:53:28.744Z,17.49
2023-04-28T21:55:56.211Z,17.16
2023-04-28T21:58:23.949Z,16.87
2023-04-28T22:00:52.233Z,16.87
2023-04-28T22:03:19.860Z,16.86
2023-04-28T22:05:47.751Z,16.94
2023-04-28T22:08:17.065Z,17.19
2023-04-28T22:10:47.795Z,17.24
2023-04-28T22:13:16.180Z,17.21
2023-04-28T22:15:43.676Z,16.80
2023-04-28T22:18:11.330Z,16.75
2023-04-28T22:20:38.656Z,16.96
2023-04-28T22:23:06.633Z,17.13
2023-04-28T22:25:34.080Z,17.05
2023-04-28T22:28:01.389Z,17.00
2023-04-28T22:30:31.082Z,16.76
2023-04-28T22:32:58.792Z,16.76
2023-04-28T22:35:26.978Z,16.53
2023-04-28T22:37:54.294Z,16.49
2023-04-28T22:40:21.698Z,16.70
2023-04-28T22:42:49.463Z,16.71
2023-04-28T22:45:16.869Z,16.74
2023-04-28T22:47:44.173Z,16.54
2023-04-28T22:50:11.807Z,16.74
2023-04-28T22:52:39.209Z,16.84
2023-04-28T22:55:06.998Z,16.86
2023-04-28T22:57:34.688Z,16.81
2023-04-28T23:00:04.016Z,16.63
2023-04-28T23:02:32.036Z,16.97
2023-04-28T23:05:00.626Z,16.99
2023-04-28T23:07:28.345Z,16.96
2023-04-28T23:09:56.229Z,16.81
2023-04-28T23:12:23.893Z,16.87
2023-04-28T23:14:51.242Z,16.76
2023-04-28T23:17:18.932Z,16.69
2023-04-28T23:19:46.258Z,16.80
2023-04-28T23:22:13.546Z,16.54
2023-04-28T23:24:40.893Z,16.49
2023-04-28T23:27:08.356Z,16.49
2023-04-28T23:29:35.940Z,16.78
2023-04-28T23:32:04.342Z,16.53
2023-04-28T23:34:31.657Z,16.64
2023-04-28T23:36:58.962Z,16.68
2023-04-28T23:39:26.985Z,16.61
2023-04-28T23:41:54.766Z,16.53
2023-04-28T23:44:22.142Z,16.60
2023-04-28T23:46:49.428Z,16.65
2023-04-28T23:49:16.815Z,16.72
2023-04-28T23:51:44.586Z,16.91
2023-04-28T23:54:13.134Z,17.06
2023-04-28T23:56:41.928Z,16.83
2023-04-28T23:59:09.226Z,16.85
